Terminal Aerodrome Forecast
Issued by NWS Wakefield, VA

Home | Current Version | Previous Version | Text Only | Print | Product List | Glossary On
Versions: 1 2 3 4 5 6 7 8 9 10 11 12 13 14 15 16 17
278
FTUS41 KAKQ 221735
TAFORF
TAF
KORF 221735Z 2218/2318 21007KT P6SM FEW025 BKN070
      TEMPO 2218/2220 BKN025
     FM222100 22008KT P6SM VCTS BKN035CB BKN120
     FM222300 20006KT P6SM SCT050
     FM230300 21011G18KT P6SM VCSH BKN100
     FM230600 22012KT P6SM BKN080
     FM231400 22012KT P6SM BKN050=

USA.gov is the U.S. government's official web portal to all federal, state and local government web resources and services.